Time;durP1;ratioP1;P1;durP2;ratioP2;P2;SDS_P1;SDS_P2;PMS_P1;PMS_P2;Temp;Humidity;BMP_temperature;BMP_pressure;BME280_temperature;BME280_humidity;BME280_pressure;Samples;Min_cycle;Max_cycle;Signal;HPM_P1;HPM_P2
2022/04/13 00:01:56;;;;;;;2.75;1.60;;;;;;;15.92;49.15;96874.47;6150736;23;20278;-77
2022/04/13 00:04:21;;;;;;;2.15;1.27;;;;;;;15.94;49.04;96868.91;6120327;23;20133;-77
2022/04/13 00:06:47;;;;;;;2.22;1.40;;;;;;;15.96;48.82;96875.44;6061700;23;20258;-77
2022/04/13 00:09:12;;;;;;;1.73;1.00;;;;;;;15.98;48.62;96872.53;6149709;23;20145;-77
2022/04/13 00:11:38;;;;;;;2.08;1.35;;;;;;;16.02;48.97;96873.50;6065204;23;20050;-77
2022/04/13 00:14:03;;;;;;;2.05;1.35;;;;;;;15.93;48.95;96876.00;6099153;23;20516;-77
2022/04/13 00:16:29;;;;;;;4.18;1.80;;;;;;;15.90;49.63;96874.75;6097863;23;20164;-76
2022/04/13 00:18:54;;;;;;;5.15;2.08;;;;;;;15.77;50.03;96875.47;6097936;23;20253;-76
2022/04/13 00:21:20;;;;;;;2.42;1.83;;;;;;;15.74;50.49;96873.38;6102537;23;20184;-77
2022/04/13 00:23:45;;;;;;;3.35;1.70;;;;;;;15.59;50.23;96873.59;6103540;23;20551;-77
2022/04/13 00:26:11;;;;;;;2.58;1.50;;;;;;;15.48;50.70;96875.56;6127172;23;20214;-77
2022/04/13 00:28:36;;;;;;;1.75;1.60;;;;;;;15.49;50.61;96879.75;6067643;23;20168;-77
2022/04/13 00:31:02;;;;;;;1.52;1.33;;;;;;;15.61;50.58;96871.44;6122432;23;20191;-77
2022/04/13 00:33:27;;;;;;;2.78;1.40;;;;;;;15.46;50.76;96867.97;6150647;23;20145;-76
2022/04/13 00:35:56;;;;;;;2.97;1.73;;;;;;;15.45;50.72;96874.28;6097920;23;20218;-76
2022/04/13 00:38:22;;;;;;;2.72;1.95;;;;;;;15.45;50.15;96878.75;6097828;23;20210;-76
2022/04/13 00:40:50;;;;;;;4.00;1.95;;;;;;;15.25;50.37;96874.53;6123570;23;20251;-77
2022/04/13 00:43:16;;;;;;;2.97;1.55;;;;;;;15.33;50.32;96871.28;6088975;23;20272;-77
2022/04/13 00:45:45;;;;;;;2.78;1.40;;;;;;;15.29;50.02;96880.81;6122726;23;20951;-77
2022/04/13 00:48:28;;;;;;;3.85;1.55;;;;;;;15.14;49.82;96881.75;6123215;23;20284;-77
2022/04/13 00:50:54;;;;;;;2.08;1.00;;;;;;;15.34;49.41;96878.13;6125259;23;20512;-77
2022/04/13 00:53:20;;;;;;;2.55;1.27;;;;;;;15.34;49.64;96880.75;6123152;23;20075;-77
2022/04/13 00:55:46;;;;;;;3.03;1.55;;;;;;;15.31;48.99;96866.34;6093328;23;20183;-77
2022/04/13 00:58:14;;;;;;;2.45;1.20;;;;;;;15.45;47.09;96860.41;6124351;23;20598;-77
2022/04/13 01:00:48;;;;;;;1.98;1.02;;;;;;;15.59;46.69;96860.47;6088668;23;20578;-77
2022/04/13 01:03:16;;;;;;;1.92;1.00;;;;;;;15.65;46.25;96865.34;6149950;23;20163;-77
2022/04/13 01:05:41;;;;;;;5.35;1.45;;;;;;;15.78;45.55;96855.22;6064399;23;20606;-77
2022/04/13 01:08:08;;;;;;;1.75;1.00;;;;;;;15.77;46.28;96857.09;6122929;23;20145;-77
2022/04/13 01:10:33;;;;;;;1.90;1.08;;;;;;;15.78;46.56;96856.03;6063868;23;20313;-77
2022/04/13 01:12:59;;;;;;;1.92;1.15;;;;;;;15.75;47.11;96867.09;6099252;23;20270;-76
2022/04/13 01:15:24;;;;;;;1.70;0.80;;;;;;;15.73;47.29;96863.94;6064574;23;20178;-77
2022/04/13 01:17:49;;;;;;;2.05;1.10;;;;;;;15.72;48.06;96872.88;6124215;23;20247;-77
2022/04/13 01:20:16;;;;;;;2.35;1.15;;;;;;;15.63;48.24;96871.97;6123107;23;20649;-77
2022/04/13 01:22:44;;;;;;;2.40;1.25;;;;;;;15.62;48.71;96879.03;6127662;23;20262;-77
2022/04/13 01:25:10;;;;;;;3.45;1.40;;;;;;;15.59;48.97;96876.22;6098628;23;20206;-77
2022/04/13 01:27:36;;;;;;;4.07;1.52;;;;;;;15.64;48.90;96878.75;6126780;23;20246;-77
2022/04/13 01:30:08;;;;;;;4.97;1.80;;;;;;;15.49;49.38;96885.78;6101606;23;20532;-77
2022/04/13 01:32:34;;;;;;;3.70;1.48;;;;;;;15.58;49.76;96883.31;6127443;23;20182;-77
2022/04/13 01:34:59;;;;;;;3.35;1.83;;;;;;;15.44;50.56;96885.84;6126730;23;20202;-77
2022/04/13 01:37:24;;;;;;;6.18;2.60;;;;;;;15.38;51.79;96888.81;6066041;23;20191;-77
2022/04/13 01:39:50;;;;;;;3.35;2.03;;;;;;;15.33;51.64;96889.66;6064130;23;20671;-77
2022/04/13 01:42:16;;;;;;;5.05;2.80;;;;;;;15.30;52.20;96891.03;6097242;23;20210;-77
2022/04/13 01:44:41;;;;;;;4.78;2.40;;;;;;;15.15;52.30;96889.34;6097598;23;20215;-76
2022/04/13 01:47:08;;;;;;;3.55;2.28;;;;;;;15.05;53.08;96905.19;6148191;23;20214;-77
2022/04/13 01:49:34;;;;;;;4.97;2.58;;;;;;;14.89;53.73;96904.59;6124034;23;20232;-77
2022/04/13 01:51:59;;;;;;;4.00;2.60;;;;;;;14.83;53.38;96907.53;6100215;23;20260;-77
2022/04/13 01:54:25;;;;;;;3.67;2.15;;;;;;;14.81;53.34;96904.44;6114432;23;20176;-77
2022/04/13 01:56:50;;;;;;;3.45;1.42;;;;;;;14.75;50.49;96916.78;6088925;23;20221;-77
2022/04/13 01:59:15;;;;;;;3.20;1.02;;;;;;;14.90;49.29;96908.00;6097463;23;20595;-77
2022/04/13 02:01:46;;;;;;;2.33;1.23;;;;;;;14.98;46.58;96902.16;6117405;23;20262;-77
2022/04/13 02:04:22;;;;;;;2.95;1.48;;;;;;;15.15;46.27;96912.97;6130396;23;20466;-77
2022/04/13 02:06:50;;;;;;;2.25;1.00;;;;;;;15.46;45.26;96914.44;6119513;23;20054;-77
2022/04/13 02:09:17;;;;;;;3.38;1.25;;;;;;;15.59;45.13;96910.31;6154219;23;20246;-77
2022/04/13 02:11:43;;;;;;;3.80;1.48;;;;;;;15.70;44.21;96915.16;6098524;23;20209;-77
2022/04/13 02:14:08;;;;;;;2.55;1.23;;;;;;;15.74;43.96;96921.38;6123191;23;20081;-77
2022/04/13 02:16:34;;;;;;;2.95;1.17;;;;;;;15.80;43.58;96906.41;6113927;23;20258;-77
2022/04/13 02:19:00;;;;;;;1.65;1.20;;;;;;;15.88;43.62;96907.59;6113573;23;20592;-77
2022/04/13 02:21:25;;;;;;;2.22;0.90;;;;;;;15.86;42.88;96907.88;6098345;23;20311;-77
2022/04/13 02:23:51;;;;;;;2.95;1.17;;;;;;;15.90;42.96;96911.50;6098074;23;20334;-77
2022/04/13 02:26:17;;;;;;;2.25;1.13;;;;;;;15.89;42.75;96915.19;6150663;23;20218;-77
2022/04/13 02:28:43;;;;;;;2.30;1.02;;;;;;;15.89;42.60;96906.53;6114507;23;20225;-77
2022/04/13 02:31:08;;;;;;;2.22;1.08;;;;;;;15.90;42.26;96914.13;6123693;23;20253;-77
2022/04/13 02:33:34;;;;;;;3.72;1.30;;;;;;;15.90;42.38;96914.13;6089411;23;20088;-77
2022/04/13 02:35:59;;;;;;;1.95;1.00;;;;;;;15.84;42.67;96915.25;6123128;23;20224;-77
2022/04/13 02:38:25;;;;;;;2.33;1.00;;;;;;;15.86;42.47;96918.38;6122862;23;20069;-77
2022/04/13 02:40:52;;;;;;;3.30;0.90;;;;;;;15.86;43.32;96912.34;6098643;23;20322;-77
2022/04/13 02:43:17;;;;;;;3.33;1.10;;;;;;;15.74;44.71;96918.00;6090375;23;20264;-77
2022/04/13 02:45:43;;;;;;;2.78;1.00;;;;;;;15.65;43.11;96919.69;6097912;23;20284;-77
2022/04/13 02:48:08;;;;;;;4.57;0.88;;;;;;;15.59;42.87;96918.19;6123019;23;20576;-77
2022/04/13 02:50:34;;;;;;;3.72;1.50;;;;;;;15.63;42.85;96924.47;6125505;23;20281;-77
2022/04/13 02:52:59;;;;;;;2.38;1.08;;;;;;;15.63;42.56;96919.97;6123185;23;20174;-77
2022/04/13 02:55:25;;;;;;;2.00;0.80;;;;;;;15.65;42.14;96917.84;6120566;23;20318;-77
2022/04/13 02:57:51;;;;;;;1.85;1.23;;;;;;;15.65;41.99;96919.69;6088910;23;20220;-77
2022/04/13 03:00:17;;;;;;;2.08;1.00;;;;;;;15.62;42.23;96913.16;6089344;23;20301;-77
2022/04/13 03:02:44;;;;;;;3.05;0.93;;;;;;;15.65;42.12;96914.44;6067850;23;20278;-77
2022/04/13 03:05:10;;;;;;;1.50;0.80;;;;;;;15.68;42.12;96921.75;6150043;23;20226;-77
2022/04/13 03:07:36;;;;;;;2.58;1.30;;;;;;;15.65;41.91;96915.22;6064947;23;20332;-77
2022/04/13 03:10:03;;;;;;;2.20;0.90;;;;;;;15.60;43.38;96920.53;6123366;23;20611;-77
2022/04/13 03:12:28;;;;;;;2.60;1.08;;;;;;;15.52;43.97;96913.28;6124298;23;20179;-77
2022/04/13 03:14:54;;;;;;;2.30;1.10;;;;;;;15.34;46.06;96917.47;6122069;23;20106;-77
2022/04/13 03:17:19;;;;;;;3.90;1.05;;;;;;;15.13;46.57;96907.22;6123250;23;20661;-77
2022/04/13 03:19:44;;;;;;;2.05;1.13;;;;;;;14.99;47.17;96914.19;6097199;23;20214;-77
2022/04/13 03:22:10;;;;;;;4.25;1.40;;;;;;;14.91;47.06;96920.81;6123013;23;20167;-77
2022/04/13 03:24:35;;;;;;;3.28;1.00;;;;;;;14.85;46.90;96921.16;6098016;23;20153;-77
2022/04/13 03:27:01;;;;;;;4.28;1.10;;;;;;;14.80;47.03;96924.59;6097731;23;20594;-77
2022/04/13 03:29:26;;;;;;;1.65;0.80;;;;;;;14.76;46.84;96920.97;6064003;23;20345;-77
2022/04/13 03:31:52;;;;;;;1.92;1.00;;;;;;;14.74;46.55;96916.00;6122609;23;20141;-77
2022/04/13 03:34:20;;;;;;;1.67;0.88;;;;;;;14.68;45.89;96913.72;6097748;23;20106;-77
2022/04/13 03:36:49;;;;;;;2.22;1.30;;;;;;;14.59;45.79;96913.53;6065451;23;20574;-77
2022/04/13 03:39:15;;;;;;;1.50;1.30;;;;;;;14.69;45.16;96916.06;6097437;23;20172;-77
2022/04/13 03:41:40;;;;;;;3.13;1.00;;;;;;;14.77;44.90;96918.09;6089398;23;20144;-77
2022/04/13 03:44:06;;;;;;;3.15;0.82;;;;;;;14.82;44.30;96913.84;6122864;23;20167;-77
2022/04/13 03:46:32;;;;;;;1.88;1.10;;;;;;;14.94;44.59;96915.03;6122872;23;20070;-77
2022/04/13 03:48:58;;;;;;;1.58;0.95;;;;;;;14.92;45.17;96914.50;6097394;23;20226;-77
2022/04/13 03:51:23;;;;;;;2.22;1.10;;;;;;;14.91;43.97;96914.81;6115361;23;20271;-77
2022/04/13 03:53:49;;;;;;;3.38;1.15;;;;;;;14.86;43.84;96912.25;6122573;23;20125;-77
2022/04/13 03:56:14;;;;;;;3.15;1.15;;;;;;;14.92;44.18;96913.72;6088710;23;20174;-77
2022/04/13 03:58:42;;;;;;;2.20;1.23;;;;;;;14.96;44.84;96912.91;6098527;23;20191;-77
2022/04/13 04:01:11;;;;;;;3.03;1.10;;;;;;;14.76;44.97;96919.13;6122981;23;20183;-77
2022/04/13 04:03:37;;;;;;;2.30;0.90;;;;;;;14.76;45.38;96916.50;6122548;23;20165;-78
2022/04/13 04:06:03;;;;;;;1.83;0.93;;;;;;;14.72;45.60;96915.50;6122839;23;20254;-77
2022/04/13 04:08:29;;;;;;;1.73;1.20;;;;;;;14.68;46.11;96919.72;6123318;23;20518;-77
2022/04/13 04:10:55;;;;;;;3.53;1.05;;;;;;;14.69;46.10;96913.44;6097628;23;20252;-77
2022/04/13 04:13:21;;;;;;;3.13;0.80;;;;;;;14.71;45.59;96916.56;6099007;23;20054;-77
2022/04/13 04:15:46;;;;;;;1.95;1.08;;;;;;;14.57;46.31;96911.16;6122646;23;20149;-77
2022/04/13 04:18:12;;;;;;;2.03;1.00;;;;;;;14.47;46.63;96906.00;6098832;23;20200;-77
2022/04/13 04:20:37;;;;;;;2.95;1.10;;;;;;;14.47;47.57;96911.25;6098796;23;20191;-77
2022/04/13 04:23:03;;;;;;;4.32;1.45;;;;;;;14.36;47.37;96913.19;6098114;23;20238;-77
2022/04/13 04:25:28;;;;;;;1.30;0.82;;;;;;;14.31;46.92;96910.59;6123700;23;20383;-77
2022/04/13 04:27:54;;;;;;;5.25;1.73;;;;;;;14.27;47.38;96920.06;6123849;23;20270;-77
2022/04/13 04:30:20;;;;;;;2.22;1.17;;;;;;;14.18;47.78;96914.63;6122992;23;20184;-77
2022/04/13 04:32:45;;;;;;;3.45;1.30;;;;;;;14.19;48.95;96923.28;6123559;23;20566;-77
2022/04/13 04:35:10;;;;;;;2.63;0.90;;;;;;;14.13;49.29;96919.13;6114114;23;20229;-77
2022/04/13 04:37:36;;;;;;;1.90;1.20;;;;;;;14.08;49.24;96916.53;6124426;23;20077;-77
2022/04/13 04:40:01;;;;;;;1.42;0.90;;;;;;;13.96;49.53;96911.66;6098819;23;20180;-77
2022/04/13 04:42:27;;;;;;;2.45;1.02;;;;;;;13.94;49.36;96911.91;6089432;23;20549;-77
2022/04/13 04:44:57;;;;;;;2.15;1.00;;;;;;;13.86;49.79;96922.94;6123745;23;20058;-77
2022/04/13 04:47:23;;;;;;;4.82;1.13;;;;;;;13.82;50.43;96919.31;6125790;23;20508;-77
2022/04/13 04:49:48;;;;;;;2.15;1.20;;;;;;;13.74;50.83;96912.03;6100423;23;20163;-77
2022/04/13 04:52:13;;;;;;;3.47;1.80;;;;;;;13.70;51.32;96908.41;6154359;23;20233;-77
2022/04/13 04:54:39;;;;;;;2.78;1.15;;;;;;;13.65;51.00;96917.06;6125812;23;20167;-77
2022/04/13 04:57:04;;;;;;;1.67;0.90;;;;;;;13.61;50.10;96932.50;6090513;23;20250;-77
2022/04/13 04:59:29;;;;;;;1.58;0.73;;;;;;;13.61;49.59;96937.75;6125436;23;20311;-77
2022/04/13 05:01:55;;;;;;;4.10;1.15;;;;;;;13.61;50.09;96937.75;6065755;23;20661;-77
2022/04/13 05:04:21;;;;;;;3.50;1.40;;;;;;;13.59;50.03;96934.63;6123329;23;20073;-77
2022/04/13 05:06:46;;;;;;;2.85;1.35;;;;;;;13.62;50.26;96941.94;6150238;23;20270;-77
2022/04/13 05:09:12;;;;;;;4.15;1.48;;;;;;;13.61;51.58;96952.66;6123012;23;20085;-77
2022/04/13 05:11:37;;;;;;;5.10;2.05;;;;;;;13.64;51.71;96958.16;6124247;23;20184;-77
2022/04/13 05:14:03;;;;;;;3.15;1.30;;;;;;;13.63;52.40;96961.03;6123068;23;20253;-77
2022/04/13 05:16:28;;;;;;;3.08;1.83;;;;;;;13.68;53.37;96968.84;6122103;23;20170;-77
2022/04/13 05:18:53;;;;;;;2.58;1.42;;;;;;;13.73;53.83;96968.81;6123325;23;20323;-77
2022/04/13 05:21:19;;;;;;;1.88;1.45;;;;;;;13.71;53.58;96951.81;6122039;23;20554;-77
2022/04/13 05:23:44;;;;;;;3.55;1.25;;;;;;;13.72;53.46;96956.00;6098046;23;20258;-77
2022/04/13 05:26:10;;;;;;;2.35;1.75;;;;;;;13.76;52.94;96959.66;6151424;23;20184;-77
2022/04/13 05:28:36;;;;;;;2.03;1.20;;;;;;;13.87;52.33;96966.41;6099285;23;20206;-77
2022/04/13 05:31:01;;;;;;;4.05;1.50;;;;;;;13.99;53.84;96969.47;6098738;23;20658;-77
2022/04/13 05:33:27;;;;;;;4.38;1.77;;;;;;;14.10;54.59;96979.88;6123214;23;20240;-77
2022/04/13 05:35:52;;;;;;;2.67;1.40;;;;;;;14.16;54.95;96984.03;6123423;23;20278;-77
2022/04/13 05:38:18;;;;;;;5.05;1.98;;;;;;;14.29;54.36;96972.97;6123101;23;20171;-77
2022/04/13 05:40:44;;;;;;;3.65;1.10;;;;;;;14.40;53.12;96974.44;6089820;23;20192;-78
2022/04/13 05:43:09;;;;;;;2.17;1.40;;;;;;;14.51;51.91;96984.81;6123049;23;20606;-78
2022/04/13 05:45:35;;;;;;;2.38;1.13;;;;;;;14.53;50.11;96977.47;6150322;23;20249;-77
2022/04/13 05:48:00;;;;;;;1.67;1.10;;;;;;;14.67;50.04;96981.06;6122625;23;20163;-78
2022/04/13 05:50:27;;;;;;;4.07;1.38;;;;;;;14.76;52.95;96979.41;6124034;23;20242;-77
2022/04/13 05:52:52;;;;;;;3.88;1.58;;;;;;;14.85;51.88;96976.19;6099975;23;20213;-77
2022/04/13 05:55:17;;;;;;;3.60;1.65;;;;;;;14.75;51.62;96954.28;6066027;23;20238;-77
2022/04/13 05:57:43;;;;;;;5.15;1.90;;;;;;;14.38;50.38;96924.16;6113805;23;20114;-77
2022/04/13 06:00:13;;;;;;;4.47;2.13;;;;;;;14.47;51.19;96924.34;6149178;23;20145;-77
2022/04/13 06:02:39;;;;;;;6.75;3.38;;;;;;;14.62;50.78;96931.31;6123266;23;20275;-77
2022/04/13 06:05:05;;;;;;;5.13;3.05;;;;;;;14.83;50.76;96939.00;6122771;23;20645;-77
2022/04/13 06:07:31;;;;;;;4.97;1.83;;;;;;;14.85;51.67;96969.09;6123478;23;20219;-77
2022/04/13 06:10:01;;;;;;;3.53;1.80;;;;;;;14.53;53.54;97006.28;6064901;23;20323;-77
2022/04/13 06:12:26;;;;;;;3.42;1.17;;;;;;;14.78;50.34;97013.22;6125238;23;20336;-77
2022/04/13 06:14:52;;;;;;;1.65;1.05;;;;;;;15.00;50.04;97001.50;6122357;23;20290;-77
2022/04/13 06:17:17;;;;;;;2.50;1.30;;;;;;;15.06;49.06;97008.25;6122136;23;20239;-78
2022/04/13 06:19:43;;;;;;;2.90;1.15;;;;;;;15.15;49.30;97007.38;6096971;23;20217;-77
2022/04/13 06:22:08;;;;;;;1.25;0.98;;;;;;;15.30;49.26;97008.25;6122216;23;20125;-77
2022/04/13 06:24:34;;;;;;;1.25;0.88;;;;;;;15.45;48.37;97013.34;6089055;23;20618;-77
2022/04/13 06:27:00;;;;;;;4.35;1.45;;;;;;;15.60;49.49;97015.03;6097820;23;20227;-78
2022/04/13 06:29:25;;;;;;;2.55;1.20;;;;;;;15.76;48.07;97013.00;6121466;23;20714;-77
2022/04/13 06:31:50;;;;;;;2.92;0.90;;;;;;;15.92;48.23;97026.75;6122506;23;20301;-77
2022/04/13 06:34:16;;;;;;;2.63;0.80;;;;;;;16.08;47.79;97025.47;6122335;23;20337;-78
2022/04/13 06:36:42;;;;;;;3.60;1.10;;;;;;;16.21;47.32;97031.06;6148953;23;20258;-78
2022/04/13 06:39:07;;;;;;;2.13;0.80;;;;;;;16.29;46.53;97031.22;6113182;23;20192;-77
2022/04/13 06:41:33;;;;;;;3.90;1.00;;;;;;;16.46;44.50;97040.44;6097285;23;20641;-77
2022/04/13 06:43:59;;;;;;;1.30;0.68;;;;;;;16.59;44.61;97047.63;6122823;23;20164;-77
2022/04/13 06:46:25;;;;;;;1.75;1.00;;;;;;;16.76;45.28;97044.47;6122613;23;20163;-77
2022/04/13 06:48:50;;;;;;;2.35;1.45;;;;;;;16.78;45.30;97055.47;6096850;23;20191;-77
2022/04/13 06:51:15;;;;;;;1.75;1.05;;;;;;;16.76;45.96;97051.56;6098817;23;20317;-77
2022/04/13 06:53:41;;;;;;;3.35;1.38;;;;;;;16.81;46.82;97056.75;6097577;23;20195;-76
2022/04/13 06:56:06;;;;;;;2.03;1.02;;;;;;;16.94;44.40;97061.28;6088057;23;20282;-77
2022/04/13 06:58:31;;;;;;;2.55;1.00;;;;;;;16.96;42.79;97059.16;6096934;23;20140;-77
2022/04/13 07:00:57;;;;;;;3.30;1.00;;;;;;;17.18;43.37;97055.91;6122081;23;20570;-77
2022/04/13 07:03:24;;;;;;;3.45;0.80;;;;;;;17.38;42.32;97064.53;6088331;23;20195;-77
2022/04/13 07:05:49;;;;;;;2.00;1.02;;;;;;;17.72;41.40;97060.75;6097188;23;20262;-77
2022/04/13 07:08:15;;;;;;;2.10;1.02;;;;;;;18.00;41.37;97072.06;6062967;23;20660;-77
2022/04/13 07:10:40;;;;;;;1.13;0.98;;;;;;;18.22;39.89;97065.28;6088456;23;20602;-77
2022/04/13 07:13:07;;;;;;;2.25;1.00;;;;;;;18.44;39.19;97075.06;6112818;23;20326;-77
2022/04/13 07:15:32;;;;;;;2.45;1.05;;;;;;;18.61;38.38;97069.97;6064066;23;20216;-77
2022/04/13 07:17:58;;;;;;;1.73;1.13;;;;;;;18.86;38.75;97081.00;6095854;23;20688;-77
2022/04/13 07:20:23;;;;;;;1.85;0.80;;;;;;;18.94;38.98;97076.88;6111633;23;20167;-77
2022/04/13 07:22:53;;;;;;;2.33;0.88;;;;;;;18.73;37.50;97074.69;6087216;23;20574;-77
2022/04/13 07:25:19;;;;;;;3.28;0.82;;;;;;;18.85;37.45;97080.25;6095902;23;20253;-77
2022/04/13 07:27:49;;;;;;;5.03;0.90;;;;;;;18.57;37.64;97078.75;6095976;23;20149;-77
2022/04/13 07:30:14;;;;;;;2.40;0.80;;;;;;;18.75;37.63;97083.09;6096234;23;20187;-77
2022/04/13 07:32:43;;;;;;;1.67;1.02;;;;;;;18.81;39.03;97089.78;6096203;23;20266;-77
2022/04/13 07:35:09;;;;;;;2.72;1.10;;;;;;;18.89;39.64;97097.03;6095696;23;20180;-77
2022/04/13 07:37:35;;;;;;;2.90;1.33;;;;;;;19.02;38.51;97092.78;6120824;23;20249;-76
2022/04/13 07:40:00;;;;;;;1.80;0.90;;;;;;;19.30;38.17;97089.97;6120729;23;20190;-77
2022/04/13 07:42:27;;;;;;;3.08;0.88;;;;;;;19.54;37.04;97104.69;6096407;23;20168;-77
2022/04/13 07:44:53;;;;;;;2.35;1.00;;;;;;;19.77;35.24;97097.50;6121103;23;20159;-77
2022/04/13 07:47:21;;;;;;;2.20;0.82;;;;;;;19.87;34.61;97091.16;6120810;23;20222;-77
2022/04/13 07:49:47;;;;;;;2.80;1.92;;;;;;;20.06;33.19;97085.63;6096170;23;20593;-77
2022/04/13 07:52:14;;;;;;;2.88;1.25;;;;;;;20.24;33.24;97092.50;6063910;23;20574;-77
2022/04/13 07:54:39;;;;;;;1.20;0.90;;;;;;;20.55;33.99;97096.88;6120648;23;20495;-77
2022/04/13 07:57:05;;;;;;;3.08;0.98;;;;;;;20.60;33.32;97094.06;6111837;23;20168;-77
2022/04/13 07:59:30;;;;;;;2.63;0.98;;;;;;;20.74;32.31;97081.47;6095596;23;20209;-77
2022/04/13 08:01:56;;;;;;;2.45;1.00;;;;;;;20.87;32.46;97081.63;6148677;23;20229;-77
2022/04/13 08:04:21;;;;;;;2.33;1.40;;;;;;;21.11;34.06;97084.56;6111461;23;20192;-77
2022/04/13 08:06:47;;;;;;;1.27;1.10;;;;;;;21.35;32.77;97091.16;6111573;23;20230;-77
2022/04/13 08:09:12;;;;;;;1.52;1.27;;;;;;;21.40;33.14;97083.06;6086460;23;20183;-77
2022/04/13 08:11:38;;;;;;;3.17;1.10;;;;;;;21.36;32.98;97076.84;6121254;23;20145;-76
2022/04/13 08:14:03;;;;;;;3.35;0.98;;;;;;;21.41;32.04;97083.84;6087093;23;20556;-77
2022/04/13 08:16:29;;;;;;;3.30;1.58;;;;;;;21.69;31.85;97087.66;6095960;23;20238;-76
2022/04/13 08:18:54;;;;;;;3.30;1.15;;;;;;;21.66;32.50;97090.94;6095217;23;20176;-76
2022/04/13 08:21:19;;;;;;;1.55;0.98;;;;;;;21.72;31.49;97090.78;6113658;23;20295;-76
2022/04/13 08:23:45;;;;;;;1.67;1.00;;;;;;;21.64;31.98;97097.66;6097902;23;20186;-76
2022/04/13 08:26:10;;;;;;;4.35;1.00;;;;;;;21.68;31.14;97091.41;6064489;23;20259;-77
2022/04/13 08:28:35;;;;;;;2.45;1.05;;;;;;;21.75;31.85;97093.56;6149438;23;20502;-77
2022/04/13 08:31:04;;;;;;;5.38;1.30;;;;;;;21.91;31.72;97095.66;6122908;23;20207;-77
2022/04/13 08:33:32;;;;;;;4.55;1.20;;;;;;;22.02;31.73;97094.97;6149841;23;20250;-77
2022/04/13 08:35:58;;;;;;;2.45;1.20;;;;;;;22.43;31.29;97106.75;6064129;23;20556;-77
2022/04/13 08:38:23;;;;;;;2.80;1.10;;;;;;;22.68;29.61;97100.81;6113334;23;20254;-77
2022/04/13 08:41:02;;;;;;;2.50;1.10;;;;;;;22.65;30.17;97112.06;6122605;23;20134;-77
2022/04/13 08:43:32;;;;;;;3.30;1.23;;;;;;;22.73;29.68;97104.03;6098167;23;20637;-77
2022/04/13 08:45:59;;;;;;;2.47;1.50;;;;;;;23.03;29.74;97111.09;6122237;23;20164;-77
2022/04/13 08:48:26;;;;;;;2.58;1.15;;;;;;;23.12;29.31;97099.34;6097395;23;20160;-77
2022/04/13 08:51:00;;;;;;;3.05;1.08;;;;;;;23.24;29.63;97098.59;6098912;23;20163;-77
2022/04/13 08:57:20;;;;;;;2.13;1.00;;;;;;;22.75;29.77;97101.81;6160041;22;20185;-77
2022/04/13 09:00:02;;;;;;;2.85;1.25;;;;;;;22.55;30.55;97105.25;6126360;23;20170;-77
2022/04/13 09:02:47;;;;;;;2.33;1.02;;;;;;;22.58;30.81;97102.72;6129759;23;20152;-77
2022/04/13 09:05:16;;;;;;;2.58;1.25;;;;;;;22.19;31.40;97104.72;6153533;23;20077;-77
2022/04/13 09:07:42;;;;;;;3.38;1.33;;;;;;;22.15;31.87;97103.78;6092205;23;20203;-77
2022/04/13 09:10:12;;;;;;;3.00;1.52;;;;;;;22.06;32.34;97105.72;6125658;23;20202;-77
2022/04/13 09:12:38;;;;;;;1.92;1.50;;;;;;;22.24;31.89;97099.22;6126886;23;20160;-77
2022/04/13 09:15:05;;;;;;;1.40;1.30;;;;;;;22.21;31.99;97099.84;6101501;23;20207;-77
2022/04/13 09:17:30;;;;;;;3.10;1.30;;;;;;;22.46;31.65;97105.31;6093933;23;20251;-77
2022/04/13 09:19:57;;;;;;;3.65;1.45;;;;;;;22.55;31.44;97107.91;6101027;23;20645;-77
2022/04/13 09:22:23;;;;;;;2.55;1.05;;;;;;;22.53;30.89;97113.53;6071240;23;20097;-77
2022/04/13 09:24:50;;;;;;;3.05;1.30;;;;;;;22.43;30.96;97114.72;6101589;23;20510;-77
2022/04/13 09:27:16;;;;;;;1.30;0.80;;;;;;;22.35;31.64;97109.47;6120122;23;20158;-77
2022/04/13 09:29:41;;;;;;;3.38;1.00;;;;;;;22.25;31.72;97111.38;6126243;23;20180;-77
2022/04/13 09:32:07;;;;;;;1.52;0.90;;;;;;;22.50;31.94;97119.53;6125168;23;20240;-77
2022/04/13 09:34:33;;;;;;;2.72;1.00;;;;;;;22.63;31.57;97117.69;6101186;23;20166;-77
2022/04/13 09:36:58;;;;;;;2.95;1.08;;;;;;;22.62;30.93;97105.53;6152979;23;20262;-77
2022/04/13 09:39:24;;;;;;;3.13;1.33;;;;;;;22.53;32.89;97104.81;6069751;23;20188;-77
2022/04/13 09:41:50;;;;;;;1.48;0.73;;;;;;;22.56;33.93;97110.25;6126908;23;20168;-77
2022/04/13 09:44:18;;;;;;;2.95;1.08;;;;;;;22.68;34.01;97106.13;6099473;23;20180;-77
2022/04/13 09:46:44;;;;;;;3.97;1.13;;;;;;;22.93;31.01;97107.75;6103019;23;20099;-78
2022/04/13 09:49:17;;;;;;;3.58;0.90;;;;;;;23.15;31.69;97101.34;6127638;23;20266;-77
2022/04/13 09:51:47;;;;;;;2.60;0.90;;;;;;;23.21;31.72;97106.44;6125424;23;20171;-77
2022/04/13 09:54:13;;;;;;;1.00;0.88;;;;;;;23.40;32.18;97100.63;6126359;23;20189;-77
2022/04/13 09:56:43;;;;;;;1.90;0.85;;;;;;;23.54;32.00;97106.38;6119875;23;20672;-78
2022/04/13 09:59:09;;;;;;;4.80;1.10;;;;;;;23.46;31.13;97102.72;6115835;23;20140;-77
2022/04/13 10:01:35;;;;;;;2.42;1.60;;;;;;;23.63;32.18;97104.41;6124356;23;20508;-77
2022/04/13 10:04:03;;;;;;;2.70;1.02;;;;;;;23.71;32.21;97108.81;6126479;23;20078;-77
2022/04/13 10:06:29;;;;;;;2.28;1.00;;;;;;;23.79;32.32;97103.75;6125222;23;20575;-77
2022/04/13 10:09:02;;;;;;;2.67;1.10;;;;;;;23.80;30.95;97107.94;6124030;23;20176;-77
2022/04/13 10:11:28;;;;;;;2.10;0.90;;;;;;;23.95;31.61;97107.31;6124368;23;20149;-77
2022/04/13 10:13:53;;;;;;;3.58;1.33;;;;;;;23.81;32.78;97109.50;6124574;23;20262;-77
2022/04/13 10:16:20;;;;;;;5.57;1.48;;;;;;;23.74;32.50;97113.47;6125561;23;20258;-77
2022/04/13 10:18:56;;;;;;;2.30;0.98;;;;;;;23.82;31.58;97113.72;6124197;23;20260;-77
2022/04/13 10:21:41;;;;;;;4.60;1.13;;;;;;;23.79;32.63;97103.75;6151423;23;20191;-77
2022/04/13 10:24:30;;;;;;;3.28;1.20;;;;;;;23.82;32.29;97106.56;6091632;23;20236;-77
2022/04/13 10:27:04;;;;;;;3.47;1.83;;;;;;;24.21;31.34;97108.84;6099433;23;20349;-78
2022/04/13 10:29:32;;;;;;;4.03;0.82;;;;;;;24.81;29.15;97109.03;6125950;23;20248;-77
2022/04/13 10:32:23;;;;;;;3.00;1.30;;;;;;;24.86;29.74;97112.25;6126470;23;20176;-77
2022/04/13 10:34:50;;;;;;;4.15;1.10;;;;;;;25.01;30.21;97109.97;6124142;23;20250;-77
2022/04/13 10:37:18;;;;;;;2.63;1.20;;;;;;;25.40;29.54;97100.31;6126323;23;20243;-77
2022/04/13 10:39:46;;;;;;;3.13;1.48;;;;;;;25.52;30.80;97104.03;6100584;23;20073;-78
2022/04/13 10:42:14;;;;;;;3.13;1.23;;;;;;;25.32;30.27;97097.81;6126154;23;20329;-77
2022/04/13 10:44:51;;;;;;;1.98;1.15;;;;;;;25.34;30.42;97103.59;6125197;23;20360;-77
2022/04/13 10:47:21;;;;;;;2.67;1.45;;;;;;;25.57;29.53;97101.13;6070437;23;20149;-77
2022/04/13 10:49:57;;;;;;;3.50;1.60;;;;;;;25.47;29.65;97098.97;6101115;23;20128;-77
2022/04/13 10:52:31;;;;;;;3.13;1.30;;;;;;;25.84;29.39;97104.81;6095116;23;20212;-78
2022/04/13 10:55:20;;;;;;;3.40;1.50;;;;;;;26.10;27.69;97106.16;6123866;23;20637;-77
2022/04/13 10:57:50;;;;;;;2.20;1.17;;;;;;;25.78;29.46;97111.50;6099483;23;20231;-78
2022/04/13 11:00:17;;;;;;;2.75;1.20;;;;;;;25.88;28.56;97107.53;6093705;23;20621;-79
2022/04/13 11:02:43;;;;;;;2.28;1.30;;;;;;;25.84;29.66;97109.34;6092459;23;20261;-78
2022/04/13 11:05:08;;;;;;;4.35;1.20;;;;;;;25.50;31.82;97108.91;6092679;23;20180;-78
2022/04/13 11:07:34;;;;;;;3.17;1.23;;;;;;;25.45;30.86;97103.84;6126897;23;20238;-78
2022/04/13 11:10:01;;;;;;;3.15;1.30;;;;;;;25.33;29.66;97107.38;6127178;23;20219;-79
2022/04/13 11:12:27;;;;;;;3.75;1.35;;;;;;;25.46;29.76;97106.16;6098573;23;20466;-79
2022/04/13 11:14:55;;;;;;;3.08;1.23;;;;;;;25.65;29.24;97105.47;6099312;23;20277;-79
2022/04/13 11:17:25;;;;;;;2.70;1.23;;;;;;;25.93;28.96;97100.03;6098342;23;20105;-79
2022/04/13 11:19:51;;;;;;;3.17;1.45;;;;;;;26.13;27.90;97086.75;6098736;23;20171;-79
2022/04/13 11:22:17;;;;;;;2.13;1.10;;;;;;;26.31;30.71;97089.81;6097688;23;20149;-80
2022/04/13 11:24:46;;;;;;;3.25;1.63;;;;;;;26.60;30.50;97091.19;6097574;23;20145;-79
2022/04/13 11:27:11;;;;;;;3.85;1.20;;;;;;;27.22;28.44;97090.44;6149518;23;20316;-79
2022/04/13 11:29:42;;;;;;;2.33;1.40;;;;;;;27.41;27.12;97092.28;6068203;23;20654;-79
2022/04/13 11:32:10;;;;;;;2.25;1.75;;;;;;;27.40;28.16;97085.38;6097882;23;20262;-79
2022/04/13 11:34:38;;;;;;;3.42;1.20;;;;;;;27.76;26.83;97089.41;6097848;23;20586;-79
2022/04/13 11:37:11;;;;;;;2.53;1.75;;;;;;;27.90;26.49;97088.06;6083933;23;20712;-79